Time,TemperatureF,DewpointF,PressureIn,WindDirection,WindDirectionDegrees,WindSpeedMPH,WindSpeedGustMPH,Humidity,HourlyPrecipIn,Conditions,Clouds,dailyrainin,SolarRadiationWatts/m^2,SoftwareType,DateUTC
2013-02-10 00:01:00,40.0,39.0,-100.00,NW,326,5.0,7.0,97,0.00,,,0.00,0.000000,,2013-02-10 08:01:00,
2013-02-10 00:11:00,40.0,39.0,-100.00,NW,326,5.0,7.0,97,0.00,,,0.00,0.000000,,2013-02-10 08:11:00,
2013-02-10 00:43:00,40.0,39.0,-100.00,NW,317,5.0,6.0,98,0.00,,,0.00,0.000000,,2013-02-10 08:43:00,
2013-02-10 00:52:00,40.0,39.0,-100.00,NW,317,5.0,6.0,98,0.00,,,0.00,0.000000,,2013-02-10 08:52:00,
2013-02-10 01:02:00,40.0,39.0,-100.00,NW,317,5.0,6.0,98,0.00,,,0.00,0.000000,,2013-02-10 09:02:00,
2013-02-10 01:11:00,40.0,39.0,-100.00,NW,317,5.0,6.0,98,0.00,,,0.00,0.000000,,2013-02-10 09:11:00,
2013-02-10 01:32:00,40.0,39.0,-100.00,WNW,292,3.0,7.0,98,0.00,,,0.00,0.000000,,2013-02-10 09:32:00,
2013-02-10 01:42:00,40.0,39.0,-100.00,WNW,292,3.0,7.0,98,0.00,,,0.00,0.000000,,2013-02-10 09:42:00,
2013-02-10 01:52:00,40.0,39.0,-100.00,WNW,292,3.0,7.0,98,0.00,,,0.00,0.000000,,2013-02-10 09:52:00,
2013-02-10 02:01:00,40.0,39.0,-100.00,WNW,292,3.0,7.0,98,0.00,,,0.00,0.000000,,2013-02-10 10:01:00,
2013-02-10 02:11:00,40.0,39.0,-100.00,WNW,292,3.0,7.0,98,0.00,,,0.00,0.000000,,2013-02-10 10:11:00,
2013-02-10 02:42:00,40.0,39.0,-100.00,NW,317,6.0,7.0,98,0.00,,,0.00,0.000000,,2013-02-10 10:42:00,
2013-02-10 02:52:00,40.0,39.0,-100.00,NW,317,6.0,7.0,98,0.00,,,0.00,0.000000,,2013-02-10 10:52:00,
2013-02-10 03:01:00,40.0,39.0,-100.00,NW,317,6.0,7.0,98,0.00,,,0.00,0.000000,,2013-02-10 11:01:00,
2013-02-10 03:11:00,40.0,39.0,-100.00,NW,317,6.0,7.0,98,0.00,,,0.00,0.000000,,2013-02-10 11:11:00,
2013-02-10 03:32:00,40.0,39.0,-100.00,NW,324,4.0,9.0,98,0.00,,,0.00,0.000000,,2013-02-10 11:32:00,
2013-02-10 03:42:00,40.0,39.0,-100.00,NW,324,4.0,9.0,98,0.00,,,0.00,0.000000,,2013-02-10 11:42:00,
2013-02-10 03:52:00,40.0,39.0,-100.00,NW,324,4.0,9.0,98,0.00,,,0.00,0.000000,,2013-02-10 11:52:00,
2013-02-10 04:01:00,40.0,39.0,-100.00,NW,324,4.0,9.0,98,0.00,,,0.00,0.000000,,2013-02-10 12:01:00,
2013-02-10 04:12:00,40.0,39.0,-100.00,NW,324,4.0,9.0,98,0.00,,,0.00,0.000000,,2013-02-10 12:12:00,
2013-02-10 07:32:00,37.0,37.0,-100.00,NW,307,4.0,6.0,99,-99.99,,,0.00,0.000000,,2013-02-10 15:32:00,
2013-02-10 07:42:00,37.0,37.0,-100.00,NW,307,4.0,6.0,99,-99.99,,,0.00,0.000000,,2013-02-10 15:42:00,
2013-02-10 07:52:00,37.0,37.0,-100.00,NW,307,4.0,6.0,99,-99.99,,,0.00,0.000000,,2013-02-10 15:52:00,
2013-02-10 08:01:00,37.0,37.0,-100.00,NW,307,4.0,6.0,99,-99.99,,,0.00,0.000000,,2013-02-10 16:01:00,
2013-02-10 08:11:00,37.0,37.0,-100.00,NW,307,4.0,6.0,99,-99.99,,,0.00,0.000000,,2013-02-10 16:11:00,
2013-02-10 08:32:00,38.0,38.0,-100.00,NNE,29,2.0,9.0,99,0.00,,,0.00,20.000000,,2013-02-10 16:32:00,
2013-02-10 08:42:00,38.0,38.0,-100.00,NNE,29,2.0,9.0,99,0.00,,,0.00,20.000000,,2013-02-10 16:42:00,
2013-02-10 08:52:00,38.0,38.0,-100.00,NNE,29,2.0,9.0,99,0.00,,,0.00,20.000000,,2013-02-10 16:52:00,
2013-02-10 09:01:00,38.0,38.0,-100.00,NNE,29,2.0,9.0,99,0.00,,,0.00,20.000000,,2013-02-10 17:01:00,
2013-02-10 09:11:00,38.0,38.0,-100.00,NNE,29,2.0,9.0,99,0.00,,,0.00,20.000000,,2013-02-10 17:11:00,
2013-02-10 09:32:00,40.0,40.0,-100.00,North,356,2.0,9.0,99,0.00,,,0.00,83.000000,,2013-02-10 17:32:00,
2013-02-10 09:42:00,40.0,40.0,-100.00,North,356,2.0,9.0,99,0.00,,,0.00,83.000000,,2013-02-10 17:42:00,
2013-02-10 09:52:00,40.0,40.0,-100.00,North,356,2.0,9.0,99,0.00,,,0.00,83.000000,,2013-02-10 17:52:00,
2013-02-10 10:01:00,40.0,40.0,-100.00,North,356,2.0,9.0,99,0.00,,,0.00,83.000000,,2013-02-10 18:01:00,
2013-02-10 10:11:00,40.0,40.0,-100.00,North,356,2.0,9.0,99,0.00,,,0.00,83.000000,,2013-02-10 18:11:00,
2013-02-10 10:42:00,42.0,41.0,-100.00,NNE,28,4.0,6.0,98,0.00,,,0.00,211.000000,,2013-02-10 18:42:00,
2013-02-10 10:52:00,42.0,41.0,-100.00,NNE,28,4.0,6.0,98,0.00,,,0.00,211.000000,,2013-02-10 18:52:00,
2013-02-10 11:01:00,42.0,41.0,-100.00,NNE,28,4.0,6.0,98,0.00,,,0.00,211.000000,,2013-02-10 19:01:00,
2013-02-10 11:11:00,42.0,41.0,-100.00,NNE,28,4.0,6.0,98,0.00,,,0.00,211.000000,,2013-02-10 19:11:00,
2013-02-10 11:32:00,43.0,42.0,-100.00,ENE,63,4.0,9.0,95,0.00,,,0.00,298.000000,,2013-02-10 19:32:00,
2013-02-10 11:43:00,43.0,42.0,-100.00,ENE,63,4.0,9.0,95,0.00,,,0.00,298.000000,,2013-02-10 19:43:00,
2013-02-10 11:52:00,43.0,42.0,-100.00,ENE,63,4.0,9.0,95,0.00,,,0.00,298.000000,,2013-02-10 19:52:00,
2013-02-10 12:01:00,43.0,42.0,-100.00,ENE,63,4.0,9.0,95,0.00,,,0.00,298.000000,,2013-02-10 20:01:00,
2013-02-10 12:11:00,43.0,42.0,-100.00,ENE,63,4.0,9.0,95,0.00,,,0.00,298.000000,,2013-02-10 20:11:00,
2013-02-10 12:42:00,45.0,39.0,-100.00,ENE,73,6.0,11.0,78,0.00,,,0.00,351.000000,,2013-02-10 20:42:00,
2013-02-10 12:52:00,45.0,39.0,-100.00,ENE,73,6.0,11.0,78,0.00,,,0.00,351.000000,,2013-02-10 20:52:00,
2013-02-10 13:02:00,45.0,39.0,-100.00,ENE,73,6.0,11.0,78,0.00,,,0.00,351.000000,,2013-02-10 21:02:00,
2013-02-10 13:11:00,45.0,39.0,-100.00,ENE,73,6.0,11.0,78,0.00,,,0.00,351.000000,,2013-02-10 21:11:00,
2013-02-10 13:32:00,45.0,38.0,-100.00,North,4,7.0,12.0,76,0.00,,,0.00,360.000000,,2013-02-10 21:32:00,
2013-02-10 13:42:00,45.0,38.0,-100.00,North,4,7.0,12.0,76,0.00,,,0.00,360.000000,,2013-02-10 21:42:00,
2013-02-10 13:52:00,45.0,38.0,-100.00,North,4,7.0,12.0,76,0.00,,,0.00,360.000000,,2013-02-10 21:52:00,
2013-02-10 14:01:00,45.0,38.0,-100.00,North,4,7.0,12.0,76,0.00,,,0.00,360.000000,,2013-02-10 22:01:00,
2013-02-10 14:11:00,45.0,38.0,-100.00,North,4,7.0,12.0,76,0.00,,,0.00,360.000000,,2013-02-10 22:11:00,
2013-02-10 14:42:00,48.0,38.0,-100.00,North,3,5.0,11.0,67,0.00,,,0.00,410.000000,,2013-02-10 22:42:00,
2013-02-10 14:52:00,48.0,38.0,-100.00,North,3,5.0,11.0,67,0.00,,,0.00,410.000000,,2013-02-10 22:52:00,
2013-02-10 15:01:00,48.0,38.0,-100.00,North,3,5.0,11.0,67,0.00,,,0.00,410.000000,,2013-02-10 23:01:00,
2013-02-10 15:11:00,48.0,38.0,-100.00,North,3,5.0,11.0,67,0.00,,,0.00,410.000000,,2013-02-10 23:11:00,
2013-02-10 15:32:00,49.0,39.0,-100.00,NNW,338,8.0,16.0,68,0.00,,,0.00,416.000000,,2013-02-10 23:32:00,
2013-02-10 15:42:00,49.0,39.0,-100.00,NNW,338,8.0,16.0,68,0.00,,,0.00,416.000000,,2013-02-10 23:42:00,
2013-02-10 15:52:00,49.0,39.0,-100.00,NNW,338,8.0,16.0,68,0.00,,,0.00,416.000000,,2013-02-10 23:52:00,
2013-02-10 16:01:00,49.0,39.0,-100.00,NNW,338,8.0,16.0,68,0.00,,,0.00,416.000000,,2013-02-11 00:01:00,
2013-02-10 16:11:00,49.0,39.0,-100.00,NNW,338,8.0,16.0,68,0.00,,,0.00,416.000000,,2013-02-11 00:11:00,
2013-02-10 16:42:00,45.0,38.0,-100.00,NNW,346,6.0,15.0,75,0.00,,,0.00,239.000000,,2013-02-11 00:42:00,
2013-02-10 16:52:00,45.0,38.0,-100.00,NNW,346,6.0,15.0,75,0.00,,,0.00,239.000000,,2013-02-11 00:52:00,
2013-02-10 17:01:00,45.0,38.0,-100.00,NNW,346,6.0,15.0,75,0.00,,,0.00,239.000000,,2013-02-11 01:01:00,
2013-02-10 17:11:00,45.0,38.0,-100.00,NNW,346,6.0,15.0,75,0.00,,,0.00,239.000000,,2013-02-11 01:11:00,
2013-02-10 18:42:00,41.0,37.0,-100.00,NNW,346,8.0,14.0,84,-99.99,,,0.00,9.000000,,2013-02-11 02:42:00,
2013-02-10 18:52:00,41.0,37.0,-100.00,NNW,346,8.0,14.0,84,-99.99,,,0.00,9.000000,,2013-02-11 02:52:00,
2013-02-10 19:01:00,41.0,37.0,-100.00,NNW,346,8.0,14.0,84,-99.99,,,0.00,9.000000,,2013-02-11 03:01:00,
2013-02-10 19:11:00,41.0,37.0,-100.00,NNW,346,8.0,14.0,84,-99.99,,,0.00,9.000000,,2013-02-11 03:11:00,
2013-02-10 19:32:00,40.0,36.0,-100.00,NNW,342,7.0,12.0,87,0.00,,,0.00,0.000000,,2013-02-11 03:32:00,
2013-02-10 19:42:00,40.0,36.0,-100.00,NNW,342,7.0,12.0,87,0.00,,,0.00,0.000000,,2013-02-11 03:42:00,
2013-02-10 19:52:00,40.0,36.0,-100.00,NNW,342,7.0,12.0,87,0.00,,,0.00,0.000000,,2013-02-11 03:52:00,
2013-02-10 20:01:00,40.0,36.0,-100.00,NNW,342,7.0,12.0,87,0.00,,,0.00,0.000000,,2013-02-11 04:01:00,
2013-02-10 20:11:00,40.0,36.0,-100.00,NNW,342,7.0,12.0,87,0.00,,,0.00,0.000000,,2013-02-11 04:11:00,
2013-02-10 20:32:00,40.0,37.0,-100.00,NNW,340,5.0,12.0,88,0.00,,,0.00,0.000000,,2013-02-11 04:32:00,
2013-02-10 20:42:00,40.0,37.0,-100.00,NNW,340,5.0,12.0,88,0.00,,,0.00,0.000000,,2013-02-11 04:42:00,
2013-02-10 20:52:00,40.0,37.0,-100.00,NNW,340,5.0,12.0,88,0.00,,,0.00,0.000000,,2013-02-11 04:52:00,
2013-02-10 21:01:00,40.0,37.0,-100.00,NNW,340,5.0,12.0,88,0.00,,,0.00,0.000000,,2013-02-11 05:01:00,
2013-02-10 21:11:00,40.0,37.0,-100.00,NNW,340,5.0,12.0,88,0.00,,,0.00,0.000000,,2013-02-11 05:11:00,
2013-02-10 21:42:00,40.0,37.0,-100.00,North,349,6.0,10.0,88,0.00,,,0.00,0.000000,,2013-02-11 05:42:00,
2013-02-10 21:52:00,40.0,37.0,-100.00,North,349,6.0,10.0,88,0.00,,,0.00,0.000000,,2013-02-11 05:52:00,
2013-02-10 22:01:00,40.0,37.0,-100.00,North,349,6.0,10.0,88,0.00,,,0.00,0.000000,,2013-02-11 06:01:00,
2013-02-10 22:11:00,40.0,37.0,-100.00,North,349,6.0,10.0,88,0.00,,,0.00,0.000000,,2013-02-11 06:11:00,
2013-02-10 22:42:00,39.0,35.0,-100.00,North,356,5.0,10.0,87,0.00,,,0.00,0.000000,,2013-02-11 06:42:00,
2013-02-10 22:52:00,39.0,35.0,-100.00,North,356,5.0,10.0,87,0.00,,,0.00,0.000000,,2013-02-11 06:52:00,
2013-02-10 23:01:00,39.0,35.0,-100.00,North,356,5.0,10.0,87,0.00,,,0.00,0.000000,,2013-02-11 07:01:00,
2013-02-10 23:11:00,39.0,35.0,-100.00,North,356,5.0,10.0,87,0.00,,,0.00,0.000000,,2013-02-11 07:11:00,
2013-02-10 23:42:00,39.0,36.0,-100.00,North,3,5.0,10.0,88,0.00,,,0.00,0.000000,,2013-02-11 07:42:00,
2013-02-10 23:52:00,39.0,36.0,-100.00,North,3,5.0,10.0,88,0.00,,,0.00,0.000000,,2013-02-11 07:52:00,